Time;durP1;ratioP1;P1;durP2;ratioP2;P2;SDS_P1;SDS_P2;PMS_P1;PMS_P2;Temp;Humidity;BMP_temperature;BMP_pressure;BME280_temperature;BME280_humidity;BME280_pressure;Samples;Min_cycle;Max_cycle;Signal;HPM_P1;HPM_P2
2023/05/12 00:00:47;;;;;;;18.27;8.68;;;29.40;92.60;;;;;;5044966;28;20033;-50
2023/05/12 00:03:14;;;;;;;20.40;9.50;;;29.30;92.70;;;;;;5044600;28;20017;-53
2023/05/12 00:05:41;;;;;;;24.65;11.82;;;29.30;92.70;;;;;;5044590;28;20037;-52
2023/05/12 00:08:07;;;;;;;29.85;13.98;;;29.30;92.70;;;;;;5044452;28;20029;-46
2023/05/12 00:10:34;;;;;;;28.75;14.60;;;29.30;92.70;;;;;;5051388;28;20117;-41
2023/05/12 00:13:01;;;;;;;21.92;10.38;;;29.00;93.20;;;;;;5063745;28;20055;-52
2023/05/12 00:15:28;;;;;;;17.90;7.47;;;28.80;93.50;;;;;;5064466;28;20052;-57
2023/05/12 00:17:54;;;;;;;16.42;5.97;;;28.60;93.60;;;;;;5064383;28;20190;-54
2023/05/12 00:20:21;;;;;;;23.02;10.05;;;28.50;93.60;;;;;;5064210;28;20033;-53
2023/05/12 00:22:49;;;;;;;21.08;10.02;;;28.30;94.00;;;;;;5064325;28;20024;-54
2023/05/12 00:25:15;;;;;;;20.98;8.77;;;28.30;94.20;;;;;;5064151;28;20041;-52
2023/05/12 00:27:42;;;;;;;24.95;11.25;;;28.20;94.70;;;;;;5064030;28;20017;-51
2023/05/12 00:30:09;;;;;;;39.97;25.75;;;28.20;94.70;;;;;;5064240;28;20024;-46
2023/05/12 00:32:36;;;;;;;77.93;53.03;;;28.20;94.70;;;;;;5063946;28;20053;-47
2023/05/12 00:35:05;;;;;;;53.00;35.03;;;28.20;94.60;;;;;;5050027;28;20041;-47
2023/05/12 00:37:32;;;;;;;39.67;24.10;;;28.20;94.50;;;;;;5043775;28;20044;-41
2023/05/12 00:39:58;;;;;;;31.85;18.40;;;28.10;94.60;;;;;;5043971;28;20087;-42
2023/05/12 00:42:25;;;;;;;23.88;12.73;;;28.10;94.60;;;;;;5043890;28;20032;-52
2023/05/12 00:44:51;;;;;;;23.83;10.73;;;28.10;94.50;;;;;;5043740;28;20045;-47
2023/05/12 00:47:20;;;;;;;23.50;9.95;;;28.00;94.50;;;;;;5043757;28;20084;-47
2023/05/12 00:49:47;;;;;;;24.15;12.52;;;28.00;94.60;;;;;;5043132;28;20041;-48
2023/05/12 00:52:13;;;;;;;24.75;11.88;;;28.00;94.50;;;;;;5043671;28;20041;-50
2023/05/12 00:54:43;;;;;;;22.98;10.25;;;28.00;94.60;;;;;;5043852;28;20027;-51
2023/05/12 00:57:10;;;;;;;18.27;8.20;;;27.90;94.90;;;;;;5046246;28;20036;-53
2023/05/12 00:59:37;;;;;;;21.15;8.13;;;27.90;95.00;;;;;;5054416;28;20013;-50
2023/05/12 01:02:04;;;;;;;21.23;7.88;;;27.80;95.10;;;;;;5053247;28;20037;-44
2023/05/12 01:04:31;;;;;;;17.25;7.50;;;27.80;95.20;;;;;;5044559;28;20025;-44
2023/05/12 01:07:04;;;;;;;21.60;8.65;;;27.80;95.20;;;;;;5044046;28;20302;-47
2023/05/12 01:09:31;;;;;;;16.10;7.90;;;27.80;95.30;;;;;;5043596;28;20032;-53
2023/05/12 01:11:57;;;;;;;19.85;7.50;;;27.60;95.50;;;;;;5049182;28;20028;-50
2023/05/12 01:14:24;;;;;;;15.95;7.55;;;27.60;95.70;;;;;;5046708;28;20314;-45
2023/05/12 01:16:59;;;;;;;20.77;8.07;;;27.60;95.80;;;;;;5048949;28;20057;-48
2023/05/12 01:19:53;;;;;;;18.30;6.80;;;27.60;95.90;;;;;;5048183;28;20037;-47
2023/05/12 01:22:21;;;;;;;15.18;6.97;;;27.50;96.00;;;;;;5053950;28;20037;-46
2023/05/12 01:24:53;;;;;;;19.73;7.90;;;27.50;95.90;;;;;;5045504;28;20041;-46
2023/05/12 01:27:24;;;;;;;20.60;8.60;;;27.50;95.70;;;;;;5044900;28;20027;-44
2023/05/12 01:29:51;;;;;;;23.42;9.13;;;27.40;95.90;;;;;;5052059;28;20197;-46
2023/05/12 01:32:19;;;;;;;27.52;10.18;;;27.40;95.90;;;;;;5054000;28;20021;-46
2023/05/12 01:34:46;;;;;;;22.40;10.05;;;27.40;96.10;;;;;;5049886;28;20024;-49
2023/05/12 01:37:12;;;;;;;20.90;9.38;;;27.40;95.80;;;;;;5052132;28;20033;-43
2023/05/12 01:39:39;;;;;;;20.52;9.45;;;27.40;96.10;;;;;;5043536;28;20020;-44
2023/05/12 01:42:06;;;;;;;22.73;9.05;;;27.30;95.90;;;;;;5043980;28;20259;-42
2023/05/12 01:44:33;;;;;;;20.75;8.85;;;27.30;96.00;;;;;;5043065;28;20053;-43
2023/05/12 01:47:00;;;;;;;22.80;8.00;;;27.20;95.90;;;;;;5044027;28;20053;-51
2023/05/12 01:49:27;;;;;;;15.98;8.07;;;27.20;96.00;;;;;;5042785;28;20028;-43
2023/05/12 01:51:54;;;;;;;16.15;7.15;;;27.20;96.20;;;;;;5043652;28;20025;-42
2023/05/12 01:54:21;;;;;;;18.05;9.00;;;27.20;96.00;;;;;;5043225;28;20072;-44
2023/05/12 01:56:47;;;;;;;19.13;7.90;;;27.20;96.00;;;;;;5043720;28;20302;-41
2023/05/12 01:59:14;;;;;;;15.88;6.97;;;27.20;96.00;;;;;;5043803;28;20329;-52
2023/05/12 02:01:41;;;;;;;17.75;8.13;;;27.20;95.90;;;;;;5052180;28;20045;-45
2023/05/12 02:04:07;;;;;;;20.15;8.27;;;27.20;95.90;;;;;;5050371;28;20017;-44
2023/05/12 02:06:34;;;;;;;18.60;7.28;;;27.20;95.70;;;;;;5049045;28;20045;-43
2023/05/12 02:09:01;;;;;;;16.02;7.47;;;27.40;95.40;;;;;;5051587;28;20331;-49
2023/05/12 02:11:28;;;;;;;18.02;7.63;;;27.60;95.20;;;;;;5062830;28;20036;-50
2023/05/12 02:13:55;;;;;;;21.42;7.88;;;27.70;95.00;;;;;;5066628;28;20052;-47
2023/05/12 02:16:23;;;;;;;17.55;7.60;;;27.80;94.90;;;;;;5057941;28;20029;-45
2023/05/12 02:18:49;;;;;;;15.95;7.38;;;27.80;94.70;;;;;;5046389;28;20096;-45
2023/05/12 02:21:16;;;;;;;23.05;8.23;;;27.90;94.50;;;;;;5046714;28;20183;-51
2023/05/12 02:23:42;;;;;;;16.02;7.30;;;28.00;94.50;;;;;;5046666;28;20021;-46
2023/05/12 02:26:09;;;;;;;20.33;7.47;;;28.00;94.50;;;;;;5046773;28;20213;-43
2023/05/12 02:28:36;;;;;;;21.05;7.65;;;28.10;94.60;;;;;;5059946;28;20017;-51
2023/05/12 02:31:02;;;;;;;18.70;7.30;;;28.10;94.70;;;;;;5066543;28;20028;-45
2023/05/12 02:33:29;;;;;;;20.52;7.25;;;28.10;94.60;;;;;;5064807;28;20396;-51
2023/05/12 02:35:56;;;;;;;16.27;6.85;;;28.10;94.60;;;;;;5055328;28;20036;-49
2023/05/12 02:38:22;;;;;;;13.23;6.57;;;28.10;94.40;;;;;;5046753;28;20037;-44
2023/05/12 02:40:49;;;;;;;14.25;6.70;;;28.10;94.30;;;;;;5046439;28;20189;-49
2023/05/12 02:43:16;;;;;;;19.55;6.63;;;28.00;94.20;;;;;;5052121;28;20100;-50
2023/05/12 02:45:42;;;;;;;13.05;6.28;;;28.10;94.10;;;;;;5056938;28;20059;-50
2023/05/12 02:48:09;;;;;;;19.02;6.13;;;28.10;94.10;;;;;;5046192;28;20045;-46
2023/05/12 02:50:35;;;;;;;15.05;6.32;;;28.10;94.10;;;;;;5045801;28;20089;-51
2023/05/12 02:53:02;;;;;;;24.85;6.03;;;28.10;94.10;;;;;;5046148;28;20025;-45
2023/05/12 02:55:29;;;;;;;17.00;5.75;;;28.10;94.10;;;;;;5045922;28;20321;-45
2023/05/12 02:57:56;;;;;;;12.18;5.75;;;28.00;94.10;;;;;;5045881;28;20059;-43
2023/05/12 03:00:22;;;;;;;15.45;5.60;;;28.10;94.00;;;;;;5046146;28;20039;-45
2023/05/12 03:02:49;;;;;;;12.90;5.93;;;28.00;94.00;;;;;;5045916;28;20029;-50
2023/05/12 03:05:16;;;;;;;17.15;5.50;;;28.10;94.10;;;;;;5045563;28;20035;-46
2023/05/12 03:07:43;;;;;;;15.38;5.38;;;28.00;94.10;;;;;;5045625;28;20029;-46
2023/05/12 03:10:10;;;;;;;16.85;5.68;;;28.00;94.10;;;;;;5056855;28;20332;-43
2023/05/12 03:12:36;;;;;;;17.13;5.78;;;28.00;94.10;;;;;;5063453;28;20020;-44
2023/05/12 03:15:06;;;;;;;14.25;5.32;;;28.00;94.10;;;;;;5064143;28;20068;-49
2023/05/12 03:17:33;;;;;;;15.85;5.78;;;28.00;94.10;;;;;;5064195;28;20027;-49
2023/05/12 03:20:00;;;;;;;15.20;5.35;;;28.00;94.00;;;;;;5063707;28;20029;-54
2023/05/12 03:22:26;;;;;;;17.77;5.78;;;28.00;94.10;;;;;;5063946;28;20021;-42
2023/05/12 03:24:53;;;;;;;15.50;5.57;;;28.00;94.00;;;;;;5064896;28;20309;-48
2023/05/12 03:27:20;;;;;;;13.63;6.25;;;28.00;93.90;;;;;;5065412;28;20032;-46
2023/05/12 03:29:47;;;;;;;13.02;5.60;;;28.00;93.80;;;;;;5063952;28;20017;-49
2023/05/12 03:32:13;;;;;;;17.25;5.60;;;28.10;93.70;;;;;;5063656;28;20053;-46
2023/05/12 03:34:40;;;;;;;13.18;5.50;;;28.10;93.70;;;;;;5063569;28;20017;-45
2023/05/12 03:37:07;;;;;;;13.77;5.50;;;28.10;93.70;;;;;;5063790;28;20020;-52
2023/05/12 03:39:33;;;;;;;14.40;5.45;;;28.10;93.70;;;;;;5063506;28;20041;-49
2023/05/12 03:42:00;;;;;;;13.90;5.20;;;28.10;93.70;;;;;;5060779;28;20085;-46
2023/05/12 03:44:27;;;;;;;10.55;5.25;;;28.00;93.70;;;;;;5060864;28;20337;-54
2023/05/12 03:46:53;;;;;;;11.60;5.10;;;28.10;93.70;;;;;;5065347;28;20194;-50
2023/05/12 03:49:20;;;;;;;16.20;5.60;;;28.00;93.60;;;;;;5065131;28;20017;-48
2023/05/12 03:51:47;;;;;;;13.65;5.38;;;28.00;93.50;;;;;;5054814;28;20244;-53
2023/05/12 03:54:13;;;;;;;14.25;5.60;;;28.00;93.40;;;;;;5045059;28;20017;-50
2023/05/12 03:56:40;;;;;;;12.43;5.00;;;28.00;93.60;;;;;;5045382;28;20205;-48
2023/05/12 03:59:07;;;;;;;13.55;5.43;;;28.00;93.50;;;;;;5044722;28;20029;-52
2023/05/12 04:01:34;;;;;;;15.40;5.80;;;28.00;93.40;;;;;;5045219;28;20293;-54
2023/05/12 04:04:01;;;;;;;11.40;5.40;;;28.10;93.50;;;;;;5053511;28;20312;-44
2023/05/12 04:06:27;;;;;;;13.38;5.35;;;28.00;93.40;;;;;;5064907;28;20083;-42
2023/05/12 04:08:54;;;;;;;15.75;5.80;;;28.00;93.50;;;;;;5064599;28;20096;-43
2023/05/12 04:11:21;;;;;;;13.57;5.72;;;28.00;93.50;;;;;;5064887;28;20021;-45
2023/05/12 04:13:47;;;;;;;12.30;5.22;;;28.00;93.60;;;;;;5064441;28;20059;-45
2023/05/12 04:16:14;;;;;;;14.15;5.45;;;28.00;93.60;;;;;;5064798;28;20043;-47
2023/05/12 04:18:43;;;;;;;13.57;5.25;;;28.00;93.60;;;;;;5064422;28;20027;-51
2023/05/12 04:21:09;;;;;;;14.18;5.28;;;28.00;93.70;;;;;;5064580;28;20064;-46
2023/05/12 04:23:36;;;;;;;15.77;5.65;;;28.00;93.70;;;;;;5052886;28;20084;-49
2023/05/12 04:26:04;;;;;;;17.10;5.22;;;28.00;93.70;;;;;;5044632;28;20030;-48
2023/05/12 04:28:30;;;;;;;13.50;5.18;;;27.90;93.80;;;;;;5044200;28;20029;-47
2023/05/12 04:31:04;;;;;;;12.02;5.20;;;28.00;93.90;;;;;;5044493;28;20087;-46
2023/05/12 04:33:31;;;;;;;14.88;5.53;;;27.90;93.90;;;;;;5048337;28;20033;-44
2023/05/12 04:35:58;;;;;;;13.88;5.00;;;27.90;93.90;;;;;;5058410;28;20104;-44
2023/05/12 04:38:25;;;;;;;14.45;5.03;;;27.90;94.00;;;;;;5064106;28;20320;-45
2023/05/12 04:40:56;;;;;;;15.20;5.60;;;27.90;94.10;;;;;;5064600;28;20025;-45
2023/05/12 04:43:23;;;;;;;17.17;5.95;;;27.90;94.00;;;;;;5063886;28;20313;-48
2023/05/12 04:45:54;;;;;;;13.73;5.32;;;27.90;94.00;;;;;;5064130;28;20297;-46
2023/05/12 04:48:21;;;;;;;16.50;6.10;;;27.80;94.10;;;;;;5063945;28;20039;-45
2023/05/12 04:50:48;;;;;;;12.70;5.43;;;27.80;94.30;;;;;;5063963;28;20037;-49
2023/05/12 04:53:15;;;;;;;12.70;5.32;;;27.90;94.40;;;;;;5063941;28;20237;-52
2023/05/12 04:55:44;;;;;;;19.02;5.93;;;27.80;94.40;;;;;;5064108;28;20078;-45
2023/05/12 04:58:12;;;;;;;16.90;5.15;;;27.80;94.50;;;;;;5063717;28;20036;-45
2023/05/12 05:00:39;;;;;;;18.33;5.40;;;27.80;94.50;;;;;;5063936;28;20029;-50
2023/05/12 05:03:06;;;;;;;15.02;5.32;;;27.80;94.60;;;;;;5063802;28;20032;-48
2023/05/12 05:05:33;;;;;;;14.85;5.60;;;27.80;94.70;;;;;;5063735;28;20040;-45
2023/05/12 05:08:02;;;;;;;15.10;5.93;;;27.70;94.80;;;;;;5063774;28;20017;-46
2023/05/12 05:10:28;;;;;;;15.30;5.68;;;27.70;94.90;;;;;;5063879;28;20040;-48
2023/05/12 05:12:55;;;;;;;14.40;6.10;;;27.70;94.90;;;;;;5063550;28;20205;-45
2023/05/12 05:15:22;;;;;;;15.30;4.95;;;27.70;94.90;;;;;;5063841;28;20036;-47
2023/05/12 05:17:49;;;;;;;11.88;5.50;;;27.60;94.80;;;;;;5063645;28;20033;-48
2023/05/12 05:20:16;;;;;;;14.35;5.85;;;27.60;94.80;;;;;;5063651;28;20346;-51
2023/05/12 05:22:43;;;;;;;14.20;5.55;;;27.60;94.70;;;;;;5063698;28;20025;-49
2023/05/12 05:25:10;;;;;;;16.85;5.68;;;27.60;94.70;;;;;;5063385;28;20037;-51
2023/05/12 05:27:37;;;;;;;17.17;5.90;;;27.60;94.70;;;;;;5063452;28;20013;-48
2023/05/12 05:30:06;;;;;;;16.13;6.68;;;27.60;94.80;;;;;;5063638;28;20025;-44
2023/05/12 05:32:39;;;;;;;19.73;7.30;;;27.60;94.90;;;;;;5063442;28;20029;-47
2023/05/12 05:35:07;;;;;;;16.42;7.78;;;27.60;95.00;;;;;;5065767;28;20319;-46
2023/05/12 05:37:33;;;;;;;18.73;7.13;;;27.60;95.10;;;;;;5067479;28;20094;-50
2023/05/12 05:40:00;;;;;;;14.02;6.35;;;27.60;95.10;;;;;;5067406;28;20025;-47
2023/05/12 05:42:27;;;;;;;12.95;6.13;;;27.60;95.20;;;;;;5067368;28;20036;-48
2023/05/12 05:44:53;;;;;;;15.20;6.60;;;27.60;95.20;;;;;;5067006;28;20332;-46
2023/05/12 05:47:20;;;;;;;15.88;6.57;;;27.60;95.30;;;;;;5067342;28;20036;-48
2023/05/12 05:49:46;;;;;;;10.27;5.60;;;27.60;95.40;;;;;;5067129;28;20045;-45
2023/05/12 05:52:13;;;;;;;17.52;5.80;;;27.60;95.30;;;;;;5067426;28;20025;-47
2023/05/12 05:54:40;;;;;;;16.33;6.07;;;27.60;95.20;;;;;;5067214;28;20212;-43
2023/05/12 05:57:06;;;;;;;15.20;5.47;;;27.50;95.20;;;;;;5067269;28;20028;-43
2023/05/12 05:59:33;;;;;;;16.13;5.38;;;27.60;95.20;;;;;;5067142;28;20359;-46
2023/05/12 06:01:59;;;;;;;16.00;5.47;;;27.50;95.10;;;;;;5067571;28;20091;-49
2023/05/12 06:04:26;;;;;;;16.25;6.18;;;27.50;95.00;;;;;;5066969;28;20040;-44
2023/05/12 06:06:53;;;;;;;11.05;5.15;;;27.50;95.00;;;;;;5067310;28;20040;-46
2023/05/12 06:09:20;;;;;;;17.30;5.43;;;27.40;94.90;;;;;;5067010;28;20255;-45
2023/05/12 06:11:46;;;;;;;16.10;5.25;;;27.40;94.90;;;;;;5066715;28;20088;-46
2023/05/12 06:14:13;;;;;;;10.27;5.00;;;27.40;95.00;;;;;;5066892;28;20028;-44
2023/05/12 06:16:40;;;;;;;17.45;5.55;;;27.50;94.90;;;;;;5067135;28;20321;-47
2023/05/12 06:19:06;;;;;;;12.63;5.05;;;27.50;94.80;;;;;;5066711;28;20029;-56
2023/05/12 06:21:33;;;;;;;14.75;5.57;;;27.50;94.80;;;;;;5067038;28;20317;-54
2023/05/12 06:24:00;;;;;;;10.57;4.85;;;27.50;94.70;;;;;;5066692;28;20087;-44
2023/05/12 06:26:26;;;;;;;14.50;5.60;;;27.50;94.70;;;;;;5066814;28;20055;-46
2023/05/12 06:28:53;;;;;;;16.08;5.18;;;27.40;94.60;;;;;;5066498;28;20393;-53
2023/05/12 06:31:19;;;;;;;13.15;5.47;;;27.40;94.60;;;;;;5066701;28;20025;-55
2023/05/12 06:33:46;;;;;;;13.40;5.43;;;27.40;94.70;;;;;;5066408;28;20017;-51
2023/05/12 06:36:13;;;;;;;12.13;5.32;;;27.40;94.80;;;;;;5066739;28;20032;-46
2023/05/12 06:38:39;;;;;;;12.73;4.55;;;27.40;94.90;;;;;;5066359;28;20062;-42
2023/05/12 06:41:06;;;;;;;10.63;4.80;;;27.40;94.90;;;;;;5066549;28;20025;-42
2023/05/12 06:43:32;;;;;;;12.90;5.18;;;27.40;95.00;;;;;;5066085;28;20037;-43
2023/05/12 06:45:59;;;;;;;14.80;5.15;;;27.40;95.00;;;;;;5065382;28;20044;-45
2023/05/12 06:48:26;;;;;;;13.57;5.68;;;27.40;95.00;;;;;;5066304;28;20205;-48
2023/05/12 06:50:52;;;;;;;11.57;5.07;;;27.40;95.00;;;;;;5066613;28;20029;-45
2023/05/12 06:53:19;;;;;;;17.27;5.32;;;27.40;94.90;;;;;;5066084;28;20048;-48
2023/05/12 06:55:46;;;;;;;15.57;5.25;;;27.40;95.00;;;;;;5066273;28;20036;-47
2023/05/12 06:58:12;;;;;;;11.38;4.80;;;27.30;95.00;;;;;;5065833;28;20029;-45
2023/05/12 07:00:39;;;;;;;14.80;4.78;;;27.30;95.00;;;;;;5066031;28;20086;-48
2023/05/12 07:03:08;;;;;;;13.55;5.03;;;27.40;95.00;;;;;;5065959;28;20053;-45
2023/05/12 07:05:35;;;;;;;12.38;5.15;;;27.30;94.80;;;;;;5065890;28;20040;-46
2023/05/12 07:08:02;;;;;;;11.07;4.85;;;27.30;94.80;;;;;;5065759;28;20021;-49
2023/05/12 07:10:29;;;;;;;16.17;4.70;;;27.30;95.10;;;;;;5065883;28;20029;-45
2023/05/12 07:12:55;;;;;;;13.88;5.50;;;27.30;94.90;;;;;;5065578;28;20075;-48
2023/05/12 07:15:22;;;;;;;12.07;5.10;;;27.30;94.80;;;;;;5065835;28;20182;-46
2023/05/12 07:17:49;;;;;;;13.25;4.97;;;27.30;94.70;;;;;;5065656;28;20028;-46
2023/05/12 07:20:15;;;;;;;16.02;5.43;;;27.30;94.60;;;;;;5065512;28;20074;-48
2023/05/12 07:22:42;;;;;;;12.43;4.95;;;27.30;94.60;;;;;;5065569;28;20068;-47
2023/05/12 07:25:08;;;;;;;12.52;5.07;;;27.30;94.60;;;;;;5065566;28;20209;-45
2023/05/12 07:27:35;;;;;;;11.68;5.13;;;27.30;94.40;;;;;;5065322;28;20221;-47
2023/05/12 07:30:02;;;;;;;16.05;4.88;;;27.30;94.50;;;;;;5065387;28;20049;-49
2023/05/12 07:32:28;;;;;;;14.20;5.30;;;27.30;94.50;;;;;;5065229;28;20411;-43
2023/05/12 07:34:55;;;;;;;13.32;4.80;;;27.20;94.50;;;;;;5065182;28;20334;-48
2023/05/12 07:37:22;;;;;;;10.80;4.30;;;27.30;94.60;;;;;;5065357;28;20036;-48
2023/05/12 07:39:48;;;;;;;11.32;5.03;;;27.20;94.60;;;;;;5065177;28;20025;-54
2023/05/12 07:42:15;;;;;;;14.38;5.28;;;27.20;94.60;;;;;;5065063;28;20309;-48
2023/05/12 07:44:42;;;;;;;12.88;4.78;;;27.20;94.60;;;;;;5064814;28;20049;-51
2023/05/12 07:47:10;;;;;;;12.82;4.75;;;27.20;94.60;;;;;;5065112;28;20082;-47
2023/05/12 07:49:37;;;;;;;16.33;5.47;;;27.20;94.50;;;;;;5064875;28;20351;-50
2023/05/12 07:52:03;;;;;;;13.43;4.78;;;27.20;94.70;;;;;;5065489;28;20021;-50
2023/05/12 07:54:31;;;;;;;10.90;4.35;;;27.20;94.90;;;;;;5064989;28;20225;-48
2023/05/12 07:56:57;;;;;;;16.45;4.78;;;27.10;94.70;;;;;;5064511;28;20032;-46
2023/05/12 07:59:24;;;;;;;13.85;4.38;;;27.20;94.70;;;;;;5065013;28;20244;-46
2023/05/12 08:01:50;;;;;;;10.90;4.40;;;27.20;94.60;;;;;;5065205;28;20068;-46
2023/05/12 08:04:17;;;;;;;11.35;4.43;;;27.20;94.50;;;;;;5064641;28;20017;-44
2023/05/12 08:06:44;;;;;;;14.77;5.07;;;27.20;94.40;;;;;;5064988;28;20033;-53
2023/05/12 08:09:10;;;;;;;13.45;4.93;;;27.20;94.50;;;;;;5064719;28;20020;-47
2023/05/12 08:11:37;;;;;;;9.98;4.40;;;27.20;94.40;;;;;;5064852;28;20112;-47
2023/05/12 08:14:04;;;;;;;10.35;4.57;;;27.20;94.30;;;;;;5064544;28;20072;-45
2023/05/12 08:16:31;;;;;;;10.40;4.90;;;27.20;94.20;;;;;;5064834;28;20024;-43
2023/05/12 08:18:58;;;;;;;14.57;4.68;;;27.10;94.30;;;;;;5064470;28;20079;-45
2023/05/12 08:21:25;;;;;;;12.23;5.07;;;27.10;94.30;;;;;;5064833;28;20127;-48
2023/05/12 08:23:51;;;;;;;13.65;4.97;;;27.10;94.30;;;;;;5064336;28;20071;-49
2023/05/12 08:26:18;;;;;;;12.05;4.82;;;27.10;94.40;;;;;;5064604;28;20037;-42
2023/05/12 08:28:45;;;;;;;13.48;4.40;;;27.00;94.40;;;;;;5064258;28;20346;-43
2023/05/12 08:31:11;;;;;;;10.23;4.68;;;27.00;94.40;;;;;;5064436;28;20100;-45
2023/05/12 08:33:38;;;;;;;14.77;4.68;;;27.00;94.40;;;;;;5064308;28;20067;-43
2023/05/12 08:36:05;;;;;;;10.27;4.60;;;27.10;94.30;;;;;;5064299;28;20025;-49
2023/05/12 08:38:32;;;;;;;11.05;4.35;;;27.10;94.30;;;;;;5064098;28;20070;-43
2023/05/12 08:41:15;;;;;;;10.95;4.47;;;27.10;94.30;;;;;;5064091;28;20256;-45
2023/05/12 08:43:49;;;;;;;12.02;4.80;;;27.10;94.30;;;;;;5063982;28;20036;-41
2023/05/12 08:46:16;;;;;;;13.85;4.68;;;27.00;94.30;;;;;;5064273;28;20029;-42
2023/05/12 08:48:48;;;;;;;11.90;4.63;;;27.00;94.30;;;;;;5063835;28;20033;-47
2023/05/12 08:51:17;;;;;;;10.82;4.55;;;27.10;94.20;;;;;;5064283;28;20053;-45
2023/05/12 08:53:46;;;;;;;12.85;4.82;;;27.10;94.10;;;;;;5063770;28;20029;-47
2023/05/12 08:56:15;;;;;;;15.43;5.53;;;27.00;94.10;;;;;;5064214;28;20035;-45
2023/05/12 08:58:44;;;;;;;13.02;5.05;;;27.10;94.10;;;;;;5063868;28;20036;-45
2023/05/12 09:01:13;;;;;;;10.88;4.50;;;27.00;94.10;;;;;;5063970;28;20040;-47
2023/05/12 09:03:42;;;;;;;12.60;4.80;;;27.10;94.20;;;;;;5063838;28;20040;-44
2023/05/12 09:06:10;;;;;;;13.65;4.88;;;27.10;94.10;;;;;;5063991;28;20099;-47
2023/05/12 09:08:38;;;;;;;14.50;4.50;;;27.10;94.10;;;;;;5063200;28;20213;-45
2023/05/12 09:11:05;;;;;;;11.52;4.20;;;27.00;94.10;;;;;;5064014;28;20123;-51
2023/05/12 09:14:01;;;;;;;12.00;4.20;;;27.10;94.30;;;;;;5063682;28;20313;-47
2023/05/12 09:16:49;;;;;;;11.27;4.57;;;27.00;94.30;;;;;;5064019;28;20323;-46
2023/05/12 09:19:20;;;;;;;12.32;4.72;;;27.10;94.30;;;;;;5063553;28;20039;-45
2023/05/12 09:21:47;;;;;;;12.57;4.30;;;27.00;94.30;;;;;;5064056;28;20314;-45
2023/05/12 09:24:14;;;;;;;14.90;5.40;;;27.00;94.30;;;;;;5063971;28;20067;-47
2023/05/12 09:26:49;;;;;;;18.17;5.93;;;27.10;94.40;;;;;;5063419;28;20251;-44
2023/05/12 09:29:15;;;;;;;15.85;5.97;;;27.10;94.40;;;;;;5063904;28;20300;-44
2023/05/12 09:31:53;;;;;;;13.25;5.45;;;27.10;94.40;;;;;;5063721;28;20028;-44
2023/05/12 09:34:28;;;;;;;15.32;5.78;;;27.10;94.50;;;;;;5063536;28;20098;-43
2023/05/12 09:37:00;;;;;;;14.70;5.80;;;27.00;94.50;;;;;;5063923;28;20029;-44
2023/05/12 09:39:27;;;;;;;10.80;5.05;;;27.00;94.70;;;;;;5063526;28;20074;-43
2023/05/12 09:41:54;;;;;;;12.82;5.15;;;27.00;94.70;;;;;;5063900;28;20040;-46
2023/05/12 09:44:22;;;;;;;16.35;5.45;;;27.00;94.80;;;;;;5063132;28;20075;-48
2023/05/12 09:46:50;;;;;;;13.82;5.13;;;27.00;94.90;;;;;;5063817;28;20040;-48
2023/05/12 09:49:25;;;;;;;15.90;5.18;;;26.90;94.90;;;;;;5063423;28;20025;-47
2023/05/12 09:51:55;;;;;;;14.32;4.60;;;27.00;95.00;;;;;;5063640;28;20058;-51
2023/05/12 09:54:29;;;;;;;11.38;4.70;;;26.90;94.80;;;;;;5063384;28;20066;-44
2023/05/12 09:57:00;;;;;;;13.15;5.03;;;27.00;95.00;;;;;;5063672;28;20209;-45
2023/05/12 09:59:35;;;;;;;11.73;4.97;;;27.00;95.00;;;;;;5063318;28;20221;-44
2023/05/12 10:02:04;;;;;;;13.07;5.03;;;27.00;95.10;;;;;;5063895;28;20275;-45
2023/05/12 10:04:53;;;;;;;14.13;5.25;;;27.00;95.00;;;;;;5063135;28;20028;-47
2023/05/12 10:07:24;;;;;;;12.45;4.75;;;27.00;95.00;;;;;;5063228;28;20041;-45
2023/05/12 10:09:54;;;;;;;15.93;5.80;;;27.10;95.10;;;;;;5063153;28;20039;-50
2023/05/12 10:12:21;;;;;;;15.52;5.07;;;27.00;95.10;;;;;;5063248;28;20102;-52
2023/05/12 10:14:49;;;;;;;12.18;4.93;;;27.10;95.10;;;;;;5062963;28;20024;-46
2023/05/12 10:17:17;;;;;;;15.60;5.43;;;27.00;95.20;;;;;;5063167;28;20063;-48
2023/05/12 10:19:44;;;;;;;10.98;4.28;;;27.10;95.30;;;;;;5062937;28;20033;-49
2023/05/12 10:22:11;;;;;;;11.82;4.85;;;27.00;95.20;;;;;;5065122;28;20063;-47
2023/05/12 10:24:40;;;;;;;19.00;5.35;;;27.00;95.30;;;;;;5066664;28;20036;-45
2023/05/12 10:27:07;;;;;;;11.98;5.22;;;27.00;95.30;;;;;;5066506;28;20020;-46
2023/05/12 10:29:36;;;;;;;16.15;5.30;;;27.00;95.30;;;;;;5066429;28;20127;-44
2023/05/12 10:32:03;;;;;;;9.52;4.93;;;27.00;95.50;;;;;;5066929;28;20033;-47
2023/05/12 10:34:33;;;;;;;14.70;5.85;;;27.00;95.50;;;;;;5066465;28;20020;-48
2023/05/12 10:37:03;;;;;;;16.75;5.63;;;27.00;95.50;;;;;;5066788;28;20293;-47
2023/05/12 10:39:32;;;;;;;17.88;5.47;;;27.00;95.60;;;;;;5066352;28;20025;-56
2023/05/12 10:42:08;;;;;;;15.20;5.85;;;27.00;95.70;;;;;;5066823;28;20063;-45
2023/05/12 10:44:36;;;;;;;15.75;6.07;;;27.00;95.80;;;;;;5066223;28;20060;-46
2023/05/12 10:47:15;;;;;;;16.25;5.47;;;27.00;95.90;;;;;;5066711;28;20043;-45
2023/05/12 10:49:43;;;;;;;16.92;6.28;;;27.00;96.00;;;;;;5066002;28;20146;-44
2023/05/12 10:52:18;;;;;;;16.52;6.07;;;27.00;96.10;;;;;;5066151;28;20352;-46
2023/05/12 10:54:46;;;;;;;15.82;6.03;;;27.00;96.10;;;;;;5057074;28;20021;-47
2023/05/12 10:57:15;;;;;;;12.70;5.57;;;26.90;96.10;;;;;;5046025;28;20033;-49
2023/05/12 10:59:55;;;;;;;18.58;5.88;;;26.90;95.90;;;;;;5046181;28;20041;-43
2023/05/12 11:02:33;;;;;;;13.80;5.28;;;26.90;95.70;;;;;;5045807;28;20045;-48
2023/05/12 11:05:09;;;;;;;15.63;5.60;;;26.90;95.60;;;;;;5045833;28;20022;-52
2023/05/12 11:07:36;;;;;;;14.82;5.50;;;26.90;95.60;;;;;;5045690;28;20108;-44
2023/05/12 11:10:04;;;;;;;13.73;5.90;;;26.90;95.50;;;;;;5045781;28;20272;-45
2023/05/12 11:12:36;;;;;;;12.88;5.75;;;26.90;95.40;;;;;;5045755;28;20313;-49
2023/05/12 11:15:04;;;;;;;16.25;5.72;;;26.90;95.30;;;;;;5045706;28;20033;-46
2023/05/12 11:17:31;;;;;;;13.02;5.70;;;27.00;95.30;;;;;;5045743;28;20032;-45
2023/05/12 11:19:59;;;;;;;12.85;5.43;;;27.00;95.20;;;;;;5045599;28;20017;-45
2023/05/12 11:22:26;;;;;;;16.20;7.68;;;27.00;95.30;;;;;;5054587;28;20060;-47
2023/05/12 11:24:53;;;;;;;21.35;7.68;;;27.00;95.30;;;;;;5063776;28;20285;-44
2023/05/12 11:27:21;;;;;;;23.77;10.27;;;27.00;95.40;;;;;;5045597;28;20021;-50
2023/05/12 11:30:07;;;;;;;21.35;11.25;;;27.00;95.30;;;;;;5045416;28;20408;-46
2023/05/12 11:32:33;;;;;;;21.67;10.52;;;27.10;95.30;;;;;;5044873;28;20021;-44
2023/05/12 11:35:18;;;;;;;16.60;8.35;;;27.10;95.40;;;;;;5045091;28;20049;-46
2023/05/12 11:37:45;;;;;;;16.52;8.90;;;27.10;95.00;;;;;;5045262;28;20017;-44
2023/05/12 11:40:21;;;;;;;17.38;9.73;;;27.10;95.00;;;;;;5045013;28;20025;-43
2023/05/12 11:42:51;;;;;;;20.75;8.57;;;27.20;95.00;;;;;;5045234;28;20021;-43
2023/05/12 11:45:29;;;;;;;16.45;8.05;;;27.20;95.00;;;;;;5044825;28;20053;-48
2023/05/12 11:48:10;;;;;;;19.15;9.32;;;27.20;95.00;;;;;;5045113;28;20021;-45
2023/05/12 11:50:42;;;;;;;18.55;8.93;;;27.20;95.00;;;;;;5064321;28;20036;-54
2023/05/12 11:53:17;;;;;;;18.87;9.53;;;27.30;95.20;;;;;;5065024;28;20328;-48
2023/05/12 11:55:54;;;;;;;19.05;9.23;;;27.30;95.20;;;;;;5048817;28;20319;-45
2023/05/12 11:59:31;;;;;;;17.92;8.50;;;27.30;95.20;;;;;;5081418;27;20444;-49
2023/05/12 12:02:00;;;;;;;18.83;8.75;;;27.30;95.60;;;;;;5081181;28;20108;-51
2023/05/12 12:04:39;;;;;;;14.30;8.07;;;27.40;95.70;;;;;;5081058;28;20029;-50
2023/05/12 12:07:07;;;;;;;15.57;7.95;;;27.40;95.50;;;;;;5073131;28;20322;-45
2023/05/12 12:09:41;;;;;;;19.67;8.05;;;27.40;95.60;;;;;;5060771;28;20032;-45
2023/05/12 12:12:10;;;;;;;21.42;8.73;;;27.40;95.40;;;;;;5060609;28;20041;-51
2023/05/12 12:14:40;;;;;;;17.38;8.02;;;27.50;95.30;;;;;;5060964;28;20021;-52
2023/05/12 12:17:06;;;;;;;17.38;7.95;;;27.50;95.40;;;;;;5061274;28;20061;-51
2023/05/12 12:19:33;;;;;;;16.67;7.68;;;27.50;95.10;;;;;;5080146;28;20228;-45
2023/05/12 12:21:59;;;;;;;18.25;7.45;;;27.50;95.30;;;;;;5080848;28;20040;-43
2023/05/12 12:24:27;;;;;;;17.52;7.93;;;27.60;95.40;;;;;;5080672;28;20078;-46
2023/05/12 12:26:54;;;;;;;14.90;6.90;;;27.60;95.60;;;;;;5080192;28;20190;-47
2023/05/12 12:29:22;;;;;;;18.15;7.22;;;27.70;95.70;;;;;;5080531;28;20025;-48
2023/05/12 12:31:49;;;;;;;15.73;7.18;;;27.70;95.70;;;;;;5080335;28;20029;-44
2023/05/12 12:34:16;;;;;;;14.93;6.22;;;27.70;95.60;;;;;;5080574;28;20313;-50
2023/05/12 12:36:45;;;;;;;18.38;7.07;;;27.80;95.70;;;;;;5080521;28;20029;-50
2023/05/12 12:39:12;;;;;;;15.75;7.20;;;27.80;95.80;;;;;;5080484;28;20278;-46
2023/05/12 12:41:38;;;;;;;12.23;6.55;;;27.80;95.70;;;;;;5080403;28;20024;-46